Time;durP1;ratioP1;P1;durP2;ratioP2;P2;SDS_P1;SDS_P2;PMS_P1;PMS_P2;Temp;Humidity;BMP_temperature;BMP_pressure;BME280_temperature;BME280_humidity;BME280_pressure;Samples;Min_cycle;Max_cycle;Signal;HPM_P1;HPM_P2
2023/04/19 00:01:07;;;;;;;5.60;5.10;;;;;;;9.35;100.00;96721.03;5026677;28;102140;-67
2023/04/19 00:03:37;;;;;;;5.83;5.33;;;;;;;9.35;100.00;96720.22;5018837;28;105343;-67
2023/04/19 00:06:03;;;;;;;5.87;5.37;;;;;;;9.33;100.00;96722.31;5013623;28;102219;-67
2023/04/19 00:08:30;;;;;;;6.27;5.70;;;;;;;9.39;100.00;96716.06;5009643;28;105587;-67
2023/04/19 00:10:58;;;;;;;6.40;5.80;;;;;;;9.32;100.00;96710.09;5023906;28;105454;-67
2023/04/19 00:13:26;;;;;;;5.97;5.47;;;;;;;9.33;100.00;96711.69;5029219;28;101870;-67
2023/04/19 00:15:53;;;;;;;6.37;5.50;;;;;;;9.33;100.00;96709.06;5027898;28;105381;-67
2023/04/19 00:18:20;;;;;;;6.03;5.53;;;;;;;9.35;100.00;96714.91;5028891;28;105483;-67
2023/04/19 00:20:47;;;;;;;6.70;5.97;;;;;;;9.29;100.00;96708.72;5027554;28;101911;-67
2023/04/19 00:23:14;;;;;;;7.47;6.07;;;;;;;9.23;100.00;96706.19;5029247;27;102889;-67
2023/04/19 00:25:41;;;;;;;7.07;6.37;;;;;;;9.25;100.00;96707.56;5031365;28;105395;-67
2023/04/19 00:28:09;;;;;;;6.40;5.77;;;;;;;9.28;100.00;96706.28;5021400;28;105536;-67
2023/04/19 00:30:36;;;;;;;6.77;6.07;;;;;;;9.26;100.00;96703.88;5024593;28;105326;-67
2023/04/19 00:33:46;;;;;;;6.40;5.80;;;;;;;9.23;100.00;96699.03;5021921;28;102078;-67
2023/04/19 00:36:13;;;;;;;9.80;6.97;;;;;;;9.25;100.00;96696.94;4991964;28;105212;-67
2023/04/19 00:38:40;;;;;;;7.00;6.40;;;;;;;9.35;100.00;96702.47;5008532;28;105657;-67
2023/04/19 00:41:07;;;;;;;6.37;5.73;;;;;;;9.33;100.00;96693.91;5029060;28;101975;-67
2023/04/19 00:43:37;;;;;;;7.00;6.30;;;;;;;9.32;100.00;96694.16;5028858;28;105218;-67
2023/04/19 00:46:05;;;;;;;7.37;6.67;;;;;;;9.26;100.00;96687.16;5033301;28;102569;-67
2023/04/19 00:48:34;;;;;;;7.53;6.70;;;;;;;9.12;100.00;96685.78;5016866;27;102827;-67
2023/04/19 00:51:02;;;;;;;7.03;6.43;;;;;;;9.08;100.00;96692.59;5027664;28;105592;-67
2023/04/19 00:53:38;;;;;;;7.10;6.50;;;;;;;9.05;100.00;96685.91;5028784;28;101868;-67
2023/04/19 00:56:06;;;;;;;7.23;6.53;;;;;;;9.02;100.00;96691.69;5028815;28;103705;-67
2023/04/19 00:58:33;;;;;;;7.90;7.10;;;;;;;8.99;100.00;96680.75;5026503;28;105748;-67
2023/04/19 01:01:01;;;;;;;7.97;7.17;;;;;;;9.00;100.00;96679.69;5009540;28;102022;-67
2023/04/19 01:03:30;;;;;;;8.27;7.47;;;;;;;8.96;100.00;96686.50;5009740;28;105285;-67
2023/04/19 01:05:57;;;;;;;8.40;7.53;;;;;;;8.91;100.00;96681.09;5026501;28;105311;-67
2023/04/19 01:08:24;;;;;;;8.63;7.73;;;;;;;8.93;100.00;96682.47;5017998;28;101992;-67
2023/04/19 01:10:54;;;;;;;8.93;8.03;;;;;;;8.89;100.00;96688.47;5025710;28;105501;-67
2023/04/19 01:13:40;;;;;;;9.63;8.63;;;;;;;8.90;100.00;96685.56;5028576;28;101928;-67
2023/04/19 01:16:09;;;;;;;8.70;7.80;;;;;;;8.89;100.00;96681.31;5033795;28;102743;-67
2023/04/19 01:18:39;;;;;;;9.30;8.37;;;;;;;8.90;100.00;96679.47;5029702;28;105776;-67
2023/04/19 01:21:08;;;;;;;8.90;8.03;;;;;;;8.85;100.00;96674.06;5012389;28;102357;-67
2023/04/19 01:23:38;;;;;;;9.17;8.30;;;;;;;8.84;100.00;96667.16;5012416;28;105297;-67
2023/04/19 01:26:06;;;;;;;9.77;8.77;;;;;;;8.85;100.00;96674.06;5012785;28;103004;-67
2023/04/19 01:28:33;;;;;;;10.10;8.83;;;;;;;8.79;100.00;96670.47;5012154;28;101904;-67
2023/04/19 01:31:00;;;;;;;9.20;8.40;;;;;;;8.79;100.00;96672.34;5034281;28;101805;-67
2023/04/19 01:34:17;;;;;;;10.90;9.80;;;;;;;8.78;100.00;96673.38;5030347;28;101941;-67
2023/04/19 01:36:44;;;;;;;11.70;9.03;;;;;;;8.77;100.00;96666.47;5008485;28;105780;-67
2023/04/19 01:39:13;;;;;;;10.37;8.43;;;;;;;8.76;100.00;96665.66;4998591;28;105249;-67
2023/04/19 01:41:40;;;;;;;9.73;8.77;;;;;;;8.76;100.00;96662.19;5031495;28;102442;-67
2023/04/19 01:44:50;;;;;;;9.77;8.77;;;;;;;8.81;100.00;96657.81;5031191;28;104915;-67
2023/04/19 01:47:16;;;;;;;9.57;8.57;;;;;;;8.81;100.00;96657.00;5023652;28;105850;-67
2023/04/19 01:49:43;;;;;;;10.07;9.07;;;;;;;8.83;100.00;96652.28;5011640;28;102032;-67
2023/04/19 01:52:10;;;;;;;11.60;10.40;;;;;;;8.79;100.00;96649.25;5011631;28;103676;-67
2023/04/19 01:55:22;;;;;;;9.90;8.90;;;;;;;8.81;100.00;96651.69;5013363;28;105763;-67
2023/04/19 01:57:52;;;;;;;9.70;8.73;;;;;;;8.77;100.00;96645.25;5011527;28;105575;-67
2023/04/19 02:00:19;;;;;;;10.77;9.67;;;;;;;8.73;100.00;96650.19;5027325;28;106292;-67
2023/04/19 02:02:48;;;;;;;10.97;9.87;;;;;;;8.63;100.00;96650.00;5015430;28;101950;-67
2023/04/19 02:05:16;;;;;;;11.13;10.00;;;;;;;8.62;100.00;96647.56;5028211;28;102488;-67
2023/04/19 02:07:42;;;;;;;11.20;10.03;;;;;;;8.61;100.00;96648.63;5029733;28;105305;-67
2023/04/19 02:10:10;;;;;;;12.47;10.40;;;;;;;8.51;100.00;96646.53;5028776;28;101915;-67
2023/04/19 02:12:37;;;;;;;11.33;10.17;;;;;;;8.52;100.00;96642.03;5030170;28;105276;-67
2023/04/19 02:15:28;;;;;;;11.73;10.53;;;;;;;8.53;100.00;96641.00;5015148;28;105278;-67
2023/04/19 02:17:55;;;;;;;13.50;10.77;;;;;;;8.54;100.00;96637.31;5013523;28;102217;-67
2023/04/19 02:20:23;;;;;;;14.50;11.53;;;;;;;8.61;100.00;96641.44;5026005;28;105497;-67
2023/04/19 02:22:50;;;;;;;11.97;10.73;;;;;;;8.62;100.00;96639.63;5029545;28;101981;-67
2023/04/19 02:25:18;;;;;;;11.43;10.10;;;;;;;8.63;100.00;96633.28;5012826;28;105196;-67
2023/04/19 02:27:46;;;;;;;11.90;10.43;;;;;;;8.63;100.00;96628.78;5027768;28;105440;-67
2023/04/19 02:30:13;;;;;;;11.87;10.50;;;;;;;8.63;100.00;96627.97;5015487;27;101808;-67
2023/04/19 02:32:42;;;;;;;10.77;9.70;;;;;;;8.69;100.00;96624.38;5009834;28;105147;-67
2023/04/19 02:35:32;;;;;;;11.40;9.93;;;;;;;8.66;100.00;96622.19;5025244;28;105356;-67
2023/04/19 02:38:00;;;;;;;11.93;10.23;;;;;;;8.62;100.00;96623.72;5030983;28;101863;-67
2023/04/19 02:40:27;;;;;;;12.07;10.77;;;;;;;8.61;100.00;96624.75;5032113;28;105503;-67
2023/04/19 02:43:06;;;;;;;10.93;9.83;;;;;;;8.69;100.00;96625.22;5029734;28;101906;-67
2023/04/19 02:45:33;;;;;;;10.73;9.67;;;;;;;8.72;100.00;96621.28;5012123;28;102521;-67
2023/04/19 02:48:02;;;;;;;12.33;11.03;;;;;;;8.81;100.00;96622.53;5010095;28;105932;-67
2023/04/19 02:50:29;;;;;;;11.83;10.63;;;;;;;8.75;100.00;96615.50;5027301;28;101923;-67
2023/04/19 02:53:19;;;;;;;12.40;11.10;;;;;;;8.78;100.00;96615.84;5011935;28;104773;-67
2023/04/19 02:55:47;;;;;;;13.00;11.40;;;;;;;8.69;100.00;96605.84;5008936;28;105015;-67
2023/04/19 02:58:18;;;;;;;12.80;11.40;;;;;;;8.71;100.00;96604.56;5009731;28;101789;-67
2023/04/19 03:01:05;;;;;;;12.37;11.07;;;;;;;8.70;100.00;96607.44;4993352;28;103704;-67
2023/04/19 03:03:42;;;;;;;12.43;11.13;;;;;;;8.68;100.00;96599.72;4992854;28;101888;-67
2023/04/19 03:06:09;;;;;;;12.90;11.47;;;;;;;8.70;100.00;96596.84;5029694;28;105458;-67
2023/04/19 03:08:36;;;;;;;13.03;11.70;;;;;;;8.68;100.00;96606.88;5026501;28;106067;-67
2023/04/19 03:11:03;;;;;;;13.10;11.70;;;;;;;8.62;100.00;96594.56;5009348;28;101790;-67
2023/04/19 03:16:54;;;;;;;12.83;11.40;;;;;;;8.65;100.00;96604.69;4999729;28;106237;-67
2023/04/19 03:19:22;;;;;;;14.57;12.30;;;;;;;8.68;100.00;96598.94;5015975;28;101857;-67
2023/04/19 03:21:51;;;;;;;12.70;11.33;;;;;;;8.68;100.00;96598.94;5016179;28;105004;-67
2023/04/19 03:24:27;;;;;;;13.53;11.33;;;;;;;8.69;100.00;96596.03;5019437;28;104268;-67
2023/04/19 03:26:54;;;;;;;13.73;11.90;;;;;;;8.63;100.00;96596.16;5029186;28;105304;-67
2023/04/19 03:29:26;;;;;;;15.00;12.63;;;;;;;8.64;100.00;96589.81;5019326;28;105586;-67
2023/04/19 03:32:09;;;;;;;15.53;13.53;;;;;;;8.70;100.00;96587.06;5009221;28;101833;-67
2023/04/19 03:34:40;;;;;;;14.73;12.87;;;;;;;8.67;100.00;96586.72;5019179;28;104782;-67
2023/04/19 03:37:07;;;;;;;13.67;12.20;;;;;;;8.68;100.00;96590.97;5027647;27;105056;-67
2023/04/19 03:39:34;;;;;;;15.80;12.50;;;;;;;8.72;100.00;96578.88;5018327;28;102385;-67
2023/04/19 03:42:04;;;;;;;14.70;12.77;;;;;;;8.62;100.00;96589.25;5008788;28;105209;-67
2023/04/19 03:45:01;;;;;;;16.87;13.97;;;;;;;8.45;100.00;96588.34;5020792;28;102980;-67
2023/04/19 03:47:30;;;;;;;16.30;13.93;;;;;;;8.46;100.00;96590.75;5031684;28;101915;-67
2023/04/19 03:49:59;;;;;;;17.53;14.47;;;;;;;8.47;100.00;96583.63;5028496;28;104622;-67
2023/04/19 03:52:28;;;;;;;17.60;14.30;;;;;;;8.49;100.00;96586.84;5028451;28;101799;-67
2023/04/19 03:55:11;;;;;;;14.83;13.23;;;;;;;8.49;100.00;96584.19;5016013;28;104830;-67
2023/04/19 03:57:40;;;;;;;16.73;14.93;;;;;;;8.46;100.00;96584.66;5009294;28;105292;-67
2023/04/19 04:00:33;;;;;;;18.17;13.93;;;;;;;8.48;100.00;96587.88;5021203;27;101910;-67
2023/04/19 04:03:01;;;;;;;18.70;15.40;;;;;;;8.48;100.00;96587.88;5026971;28;104927;-67
2023/04/19 04:05:30;;;;;;;20.10;16.17;;;;;;;8.48;100.00;96593.19;5011139;28;105415;-67
2023/04/19 04:07:57;;;;;;;18.83;16.07;;;;;;;8.43;100.00;96588.59;5008371;28;101870;-67
2023/04/19 04:10:24;;;;;;;19.53;15.90;;;;;;;8.48;100.00;96590.53;5011382;28;104907;-67
2023/04/19 04:12:51;;;;;;;19.43;16.03;;;;;;;8.51;100.00;96590.06;5019394;28;101943;-67
2023/04/19 04:15:25;;;;;;;18.67;15.27;;;;;;;8.56;100.00;96583.03;5010776;28;104445;-67
2023/04/19 04:17:54;;;;;;;17.63;15.37;;;;;;;8.50;100.00;96583.16;5019931;28;105337;-67
2023/04/19 04:20:21;;;;;;;17.40;14.87;;;;;;;8.51;100.00;96587.44;5026658;28;102071;-67
2023/04/19 04:22:52;;;;;;;17.37;15.37;;;;;;;8.56;100.00;96592.84;5027460;28;105324;-67
2023/04/19 04:25:20;;;;;;;16.37;14.57;;;;;;;8.50;100.00;96586.59;5027548;28;104126;-67
2023/04/19 04:27:47;;;;;;;17.17;14.73;;;;;;;8.50;100.00;96593.78;5028102;28;101923;-67
2023/04/19 04:30:19;;;;;;;18.13;14.17;;;;;;;8.45;100.00;96594.44;5026088;28;104876;-67
2023/04/19 04:32:46;;;;;;;18.43;15.00;;;;;;;8.34;100.00;96592.59;5011997;28;105391;-67
2023/04/19 04:35:21;;;;;;;18.03;14.60;;;;;;;8.35;100.00;96596.09;5008030;28;103675;-66
2023/04/19 04:38:04;;;;;;;17.33;14.77;;;;;;;8.40;100.00;96596.97;5001437;28;105125;-67
2023/04/19 04:40:32;;;;;;;18.83;15.80;;;;;;;8.43;100.00;96593.88;5015736;28;103132;-66
2023/04/19 04:43:03;;;;;;;18.27;15.03;;;;;;;8.47;100.00;96595.03;5011505;28;104781;-66
2023/04/19 04:45:31;;;;;;;18.73;15.90;;;;;;;8.42;100.00;96594.09;5007370;28;104876;-66
2023/04/19 04:47:58;;;;;;;19.20;14.67;;;;;;;8.43;100.00;96593.88;4995995;28;102045;-66
2023/04/19 04:50:27;;;;;;;19.63;15.73;;;;;;;8.41;100.00;96592.50;4987660;28;105227;-66
2023/04/19 04:52:54;;;;;;;17.60;14.50;;;;;;;8.48;100.00;96590.53;4988261;28;102551;-66
2023/04/19 04:55:28;;;;;;;20.00;15.80;;;;;;;8.47;100.00;96592.38;5027638;28;102026;-67
2023/04/19 04:57:55;;;;;;;21.23;15.87;;;;;;;8.39;100.00;96592.72;5025354;28;105388;-67
2023/04/19 05:00:29;;;;;;;20.27;15.30;;;;;;;8.37;100.00;96583.41;5007527;28;101937;-67
2023/04/19 05:03:38;;;;;;;21.37;16.13;;;;;;;8.34;100.00;96589.19;4998755;28;104741;-67
2023/04/19 05:06:09;;;;;;;23.00;16.50;;;;;;;8.29;100.00;96594.34;5026696;28;105432;-67
2023/04/19 05:08:36;;;;;;;23.00;17.40;;;;;;;8.36;100.00;96595.03;5027482;28;101865;-67
2023/04/19 05:11:20;;;;;;;22.00;17.37;;;;;;;8.35;100.00;96593.44;5027255;28;105341;-67
2023/04/19 05:14:26;;;;;;;24.77;17.53;;;;;;;8.36;100.00;96585.25;5026800;28;105029;-67
2023/04/19 05:16:54;;;;;;;23.37;17.90;;;;;;;8.35;100.00;96585.47;5030764;28;101837;-67
2023/04/19 05:19:21;;;;;;;22.83;17.73;;;;;;;8.44;100.00;96587.53;5026575;28;105821;-68
2023/04/19 05:21:54;;;;;;;24.87;17.97;;;;;;;8.48;100.00;96587.88;5026779;28;102075;-68
2023/04/19 05:24:23;;;;;;;23.87;17.77;;;;;;;8.48;100.00;96587.88;5026623;28;105567;-68
2023/04/19 05:26:53;;;;;;;24.13;17.57;;;;;;;8.48;100.00;96590.53;4986360;28;104979;-67
2023/04/19 05:29:20;;;;;;;23.37;17.57;;;;;;;8.46;100.00;96589.97;4987165;28;102055;-67
2023/04/19 05:31:52;;;;;;;23.80;18.43;;;;;;;8.42;100.00;96588.81;4991841;28;105995;-67
2023/04/19 05:35:04;;;;;;;23.67;18.20;;;;;;;8.42;100.00;96588.81;5026550;28;105345;-67
2023/04/19 05:37:32;;;;;;;24.23;18.73;;;;;;;8.28;100.00;96577.63;5026877;28;101804;-65
2023/04/19 05:40:14;;;;;;;28.00;20.50;;;;;;;8.31;100.00;96586.97;5028791;28;104892;-67
2023/04/19 05:42:43;;;;;;;31.30;20.40;;;;;;;8.31;100.00;96579.03;4918372;28;102116;-64
2023/04/19 05:45:26;;;;;;;30.00;21.30;;;;;;;8.36;100.00;96577.31;4930324;28;104873;-65
2023/04/19 05:47:53;;;;;;;29.20;22.10;;;;;;;8.35;100.00;96574.88;4930067;28;105286;-67
2023/04/19 05:50:55;;;;;;;31.30;22.80;;;;;;;8.36;100.00;96576.50;4930053;28;102130;-67
2023/04/19 05:53:43;;;;;;;31.80;23.10;;;;;;;8.41;100.00;96571.31;4946335;28;102134;-67
2023/04/19 05:56:10;;;;;;;31.63;21.97;;;;;;;8.38;100.00;96577.88;4929334;28;105338;-67
2023/04/19 05:58:39;;;;;;;31.03;22.80;;;;;;;8.34;100.00;96581.22;4929735;28;102120;-67
2023/04/19 06:01:07;;;;;;;32.27;23.07;;;;;;;8.40;100.00;96575.00;4941364;28;105937;-67
2023/04/19 06:07:00;;;;;;;34.17;24.90;;;;;;;8.45;100.00;96577.75;4951062;28;105133;-67
2023/04/19 06:09:28;;;;;;;29.67;23.23;;;;;;;8.48;100.00;96572.78;4932276;28;105585;-67
2023/04/19 06:11:56;;;;;;;29.90;22.90;;;;;;;8.52;100.00;96579.25;4944889;28;102136;-67
2023/04/19 06:14:57;;;;;;;29.63;23.50;;;;;;;8.49;100.00;96581.53;4950891;28;105245;-67
2023/04/19 06:17:25;;;;;;;31.17;23.13;;;;;;;8.41;100.00;96571.31;4952032;28;104948;-67
2023/04/19 06:19:52;;;;;;;30.20;23.60;;;;;;;8.48;100.00;96577.28;4997751;28;102051;-67
2023/04/19 06:22:19;;;;;;;32.20;23.90;;;;;;;8.47;100.00;96578.31;5027172;28;105075;-67
2023/04/19 06:24:53;;;;;;;31.17;23.73;;;;;;;8.50;100.00;96568.06;5019567;27;102591;-67
2023/04/19 06:27:20;;;;;;;33.47;24.00;;;;;;;8.48;100.00;96571.97;5014475;28;102290;-67
2023/04/19 06:29:47;;;;;;;31.63;23.50;;;;;;;8.51;100.00;96576.81;5009531;28;105525;-67
2023/04/19 06:32:15;;;;;;;32.00;24.50;;;;;;;8.52;100.00;96573.13;5009701;28;101892;-67
2023/04/19 06:34:47;;;;;;;30.57;24.03;;;;;;;8.53;100.00;96580.03;5009843;28;103989;-67
2023/04/19 06:37:14;;;;;;;29.17;22.73;;;;;;;8.49;100.00;96578.88;5010435;28;105416;-67
2023/04/19 06:39:41;;;;;;;33.07;25.17;;;;;;;8.48;100.00;96571.97;5028923;28;102043;-67
2023/04/19 06:42:08;;;;;;;32.60;24.33;;;;;;;8.51;100.00;96582.13;5029550;28;105205;-67
2023/04/19 06:44:38;;;;;;;33.53;24.97;;;;;;;8.48;100.00;96580.75;5027610;28;103993;-67
2023/04/19 06:47:05;;;;;;;29.63;23.37;;;;;;;8.50;100.00;96588.47;5028043;28;101813;-67
2023/04/19 06:49:33;;;;;;;33.07;24.30;;;;;;;8.53;100.00;96575.56;5028044;28;105460;-69
2023/04/19 06:52:00;;;;;;;33.60;25.27;;;;;;;8.51;100.00;96576.81;5028684;28;102006;-69
2023/04/19 06:54:31;;;;;;;33.50;25.70;;;;;;;8.53;100.00;96572.09;5027086;28;105373;-67
2023/04/19 06:56:58;;;;;;;32.83;25.27;;;;;;;8.58;100.00;96582.81;5022164;28;105032;-67
2023/04/19 06:59:27;;;;;;;34.47;25.67;;;;;;;8.56;100.00;96571.63;5019025;28;102065;-68
2023/04/19 07:01:55;;;;;;;34.70;26.30;;;;;;;8.60;100.00;96575.41;4989791;28;105629;-66
2023/04/19 07:04:24;;;;;;;34.00;25.37;;;;;;;8.56;100.00;96576.94;5024402;28;102911;-66
2023/04/19 07:06:55;;;;;;;34.03;25.57;;;;;;;8.61;100.00;96577.03;5010622;28;101775;-63
2023/04/19 07:09:22;;;;;;;32.93;25.27;;;;;;;8.60;100.00;96564.81;5009970;28;103521;-63
2023/04/19 07:11:50;;;;;;;32.87;24.97;;;;;;;8.61;100.00;96577.03;5012811;28;102129;-63
2023/04/19 07:14:28;;;;;;;33.57;25.27;;;;;;;8.47;100.00;96563.25;5028825;28;104815;-63
2023/04/19 07:17:01;;;;;;;34.00;24.47;;;;;;;8.52;100.00;96570.47;5028119;28;105554;-64
2023/04/19 07:19:28;;;;;;;34.10;24.47;;;;;;;8.56;100.00;96558.38;4989077;28;101871;-64
2023/04/19 07:21:57;;;;;;;32.63;25.87;;;;;;;8.53;100.00;96564.97;4993054;28;105411;-64
2023/04/19 07:24:25;;;;;;;31.87;25.57;;;;;;;8.60;100.00;96562.97;5009042;28;104662;-64
2023/04/19 07:26:52;;;;;;;32.80;25.73;;;;;;;8.52;100.00;96563.34;5023610;28;102259;-63
2023/04/19 07:29:19;;;;;;;32.50;25.47;;;;;;;8.49;100.00;96557.69;5009102;28;105725;-64
2023/04/19 07:31:46;;;;;;;31.83;24.90;;;;;;;8.44;100.00;96562.88;5011924;28;105287;-64
2023/04/19 07:34:13;;;;;;;34.50;26.13;;;;;;;8.32;100.00;96562.09;5011551;28;102511;-65
2023/04/19 07:36:40;;;;;;;34.00;26.30;;;;;;;8.39;100.00;96557.50;5029644;27;102808;-64
2023/04/19 07:39:08;;;;;;;38.50;26.83;;;;;;;8.48;100.00;96556.06;4992362;28;101988;-64
2023/04/19 07:41:35;;;;;;;37.10;27.33;;;;;;;8.40;100.00;96556.44;5009621;28;102570;-62
2023/04/19 07:44:10;;;;;;;34.70;27.10;;;;;;;8.51;100.00;96547.66;5028471;28;105006;-63
2023/04/19 07:46:37;;;;;;;35.43;27.07;;;;;;;8.43;100.00;96553.31;5029160;28;101800;-66
2023/04/19 07:49:04;;;;;;;36.17;28.03;;;;;;;8.53;100.00;96542.94;5009074;28;104801;-66
2023/04/19 07:51:31;;;;;;;35.27;27.77;;;;;;;8.47;100.00;96543.88;5009475;28;105478;-66
2023/04/19 07:54:21;;;;;;;36.30;26.90;;;;;;;8.48;100.00;96545.47;4998601;28;101932;-64
2023/04/19 07:56:48;;;;;;;36.83;27.57;;;;;;;8.55;100.00;96546.16;4995470;28;105015;-64
2023/04/19 07:59:14;;;;;;;41.10;29.10;;;;;;;8.66;100.00;96542.66;4988809;28;101878;-64
2023/04/19 08:01:42;;;;;;;34.37;27.43;;;;;;;8.65;100.00;96541.88;5000031;28;104887;-63
2023/04/19 08:04:25;;;;;;;34.17;27.40;;;;;;;8.74;100.00;96542.31;5018871;27;105320;-63
2023/04/19 08:06:52;;;;;;;35.07;26.47;;;;;;;8.64;100.00;96542.09;4994029;28;101862;-62
2023/04/19 08:09:21;;;;;;;32.07;25.67;;;;;;;8.66;100.00;96542.66;4996429;28;104711;-63
2023/04/19 08:11:48;;;;;;;35.37;26.83;;;;;;;8.80;100.00;96539.53;5003543;28;102855;-65
2023/04/19 08:14:14;;;;;;;33.20;26.40;;;;;;;8.74;100.00;96537.81;5003687;28;102009;-66
2023/04/19 08:16:42;;;;;;;33.57;25.60;;;;;;;8.77;100.00;96536.56;5008023;28;105065;-65
2023/04/19 08:19:09;;;;;;;30.63;24.77;;;;;;;8.80;100.00;96536.06;5001226;28;102018;-63
2023/04/19 08:21:36;;;;;;;30.63;25.83;;;;;;;8.66;100.00;96534.72;5012314;28;102559;-65
2023/04/19 08:24:03;;;;;;;31.33;25.43;;;;;;;8.74;100.00;96540.47;4994781;28;105025;-65
2023/04/19 08:26:31;;;;;;;32.27;25.60;;;;;;;8.77;100.00;96534.69;4997912;28;101821;-64
2023/04/19 08:28:58;;;;;;;33.63;25.77;;;;;;;8.80;100.00;96538.72;4998772;28;105770;-65
2023/04/19 08:31:26;;;;;;;32.87;25.47;;;;;;;8.90;100.00;96536.28;5006740;28;105583;-65
2023/04/19 08:33:54;;;;;;;32.10;25.20;;;;;;;8.86;100.00;96530.63;4991275;28;102535;-61
2023/04/19 08:36:21;;;;;;;31.67;26.20;;;;;;;8.85;100.00;96536.16;4998245;28;102905;-61
2023/04/19 08:38:48;;;;;;;29.27;24.80;;;;;;;8.85;100.00;96530.88;4999225;28;103513;-66
2023/04/19 08:41:19;;;;;;;28.57;22.67;;;;;;;8.91;100.00;96535.22;4997768;28;105572;-65
2023/04/19 08:43:55;;;;;;;28.30;24.43;;;;;;;8.84;100.00;96530.03;5008379;28;104991;-65
2023/04/19 08:46:23;;;;;;;27.33;22.70;;;;;;;8.80;100.00;96528.13;5010225;28;102101;-65
2023/04/19 08:48:50;;;;;;;29.37;24.53;;;;;;;8.73;100.00;96522.16;4988569;28;105304;-65
2023/04/19 08:51:18;;;;;;;31.23;24.10;;;;;;;8.77;100.00;96526.75;4993586;28;105418;-65
2023/04/19 08:53:49;;;;;;;29.83;23.87;;;;;;;8.79;100.00;96521.22;5006515;28;101940;-65
2023/04/19 08:56:16;;;;;;;28.17;22.90;;;;;;;8.64;100.00;96523.53;4997036;28;105183;-65
2023/04/19 08:58:42;;;;;;;26.90;22.37;;;;;;;8.79;100.00;96523.84;5010275;28;103707;-68
2023/04/19 09:01:11;;;;;;;30.73;23.00;;;;;;;8.81;100.00;96519.09;5001368;28;103443;-66
2023/04/19 09:03:51;;;;;;;30.83;23.47;;;;;;;8.81;100.00;96508.50;4992215;28;105471;-66
2023/04/19 09:06:18;;;;;;;28.70;22.53;;;;;;;8.84;100.00;96513.34;5014070;28;101862;-66
2023/04/19 09:08:45;;;;;;;30.40;23.67;;;;;;;8.95;100.00;96512.50;5002207;28;103557;-66
2023/04/19 09:11:12;;;;;;;28.53;23.17;;;;;;;9.06;100.00;96501.03;4990915;28;105048;-66
2023/04/19 09:13:43;;;;;;;29.00;23.03;;;;;;;8.91;100.00;96500.75;4994875;28;102632;-66
2023/04/19 09:16:24;;;;;;;25.80;21.23;;;;;;;8.91;100.00;96492.78;5002376;28;105038;-66
2023/04/19 09:18:55;;;;;;;28.60;22.87;;;;;;;8.99;100.00;96495.06;4997775;28;105635;-66
2023/04/19 09:21:28;;;;;;;27.50;22.77;;;;;;;8.92;100.00;96492.56;5001874;28;101957;-66
2023/04/19 09:24:00;;;;;;;28.40;21.80;;;;;;;8.87;100.00;96496.94;4989245;28;102675;-66
2023/04/19 09:26:29;;;;;;;26.03;20.53;;;;;;;8.83;100.00;96491.31;5008310;28;101950;-67
2023/04/19 09:28:57;;;;;;;27.03;22.60;;;;;;;8.92;100.00;96489.91;5013936;28;103548;-68
2023/04/19 09:31:27;;;;;;;27.17;21.93;;;;;;;9.14;100.00;96487.38;4997576;28;105040;-69
2023/04/19 09:34:40;;;;;;;27.67;21.77;;;;;;;9.15;100.00;96488.97;4994386;27;101846;-68
2023/04/19 09:37:14;;;;;;;25.83;20.43;;;;;;;9.22;100.00;96479.03;4999263;28;105515;-64
2023/04/19 09:39:41;;;;;;;23.63;19.83;;;;;;;9.11;100.00;96477.25;5010531;28;102536;-64
2023/04/19 09:42:08;;;;;;;25.20;20.13;;;;;;;9.14;100.00;96474.91;5010429;28;101867;-63
2023/04/19 09:44:35;;;;;;;24.40;19.43;;;;;;;9.22;100.00;96471.88;5014276;28;104987;-66
2023/04/19 09:47:22;;;;;;;26.57;20.40;;;;;;;9.17;100.00;96471.78;5002536;28;101980;-67
2023/04/19 09:50:03;;;;;;;23.37;19.03;;;;;;;9.03;100.00;96459.88;5009419;28;104843;-66
2023/04/19 09:52:32;;;;;;;23.50;19.20;;;;;;;8.99;100.00;96468.56;5009481;28;105583;-66
2023/04/19 09:55:19;;;;;;;24.13;19.90;;;;;;;9.00;100.00;96462.19;5008416;28;102065;-67
2023/04/19 09:57:46;;;;;;;25.87;21.43;;;;;;;9.10;100.00;96459.72;4998563;28;102391;-66
2023/04/19 10:00:14;;;;;;;27.33;21.27;;;;;;;9.17;100.00;96463.81;4992621;28;105095;-66
2023/04/19 10:02:46;;;;;;;28.30;21.13;;;;;;;9.15;100.00;96457.13;5006002;28;102203;-67
2023/04/19 10:08:39;;;;;;;25.93;19.67;;;;;;;9.18;100.00;96454.03;5011680;28;105624;-65
2023/04/19 10:11:07;;;;;;;24.13;19.77;;;;;;;9.28;100.00;96451.53;4995266;28;103567;-65
2023/04/19 10:13:37;;;;;;;22.67;19.67;;;;;;;9.28;100.00;96451.53;5013881;28;102559;-66
2023/04/19 10:16:04;;;;;;;23.87;19.17;;;;;;;9.26;100.00;96453.66;4992132;28;101713;-66
2023/04/19 10:18:33;;;;;;;21.80;18.37;;;;;;;9.19;100.00;96452.97;5005276;28;102420;-66
2023/04/19 10:21:06;;;;;;;21.50;18.20;;;;;;;9.13;100.00;96444.13;5001811;28;102706;-66
2023/04/19 10:23:38;;;;;;;25.53;18.27;;;;;;;9.20;100.00;96441.31;5006746;28;101881;-68
2023/04/19 10:26:06;;;;;;;21.47;18.53;;;;;;;9.36;100.00;96440.50;4990351;28;105198;-67
2023/04/19 10:28:36;;;;;;;23.27;19.93;;;;;;;9.32;100.00;96434.09;5008488;28;103413;-67
2023/04/19 10:31:05;;;;;;;24.20;21.30;;;;;;;9.28;100.00;96435.63;5006464;28;101864;-63
2023/04/19 10:33:42;;;;;;;24.23;19.70;;;;;;;9.31;100.00;96437.78;5018466;28;102708;-83
2023/04/19 10:36:10;;;;;;;29.20;23.00;;;;;;;9.19;100.00;96437.88;5005864;28;101869;-63
2023/04/19 10:38:40;;;;;;;26.33;20.20;;;;;;;9.20;100.00;96433.34;4994709;28;102537;-64
2023/04/19 10:41:13;;;;;;;25.43;19.20;;;;;;;9.19;100.00;96439.72;4993327;28;105416;-66
2023/04/19 10:43:46;;;;;;;22.10;19.30;;;;;;;9.36;100.00;96430.72;5014825;28;101924;-66
2023/04/19 10:46:36;;;;;;;25.93;22.00;;;;;;;9.59;100.00;96424.44;5003664;28;102440;-67
2023/04/19 10:49:06;;;;;;;23.43;19.60;;;;;;;9.81;100.00;96426.09;5001393;28;102492;-64
2023/04/19 10:51:35;;;;;;;25.07;19.63;;;;;;;9.87;100.00;96413.69;5003268;28;101823;-65
2023/04/19 10:54:04;;;;;;;21.87;18.30;;;;;;;9.96;100.00;96413.03;5003959;28;104869;-65
2023/04/19 10:57:04;;;;;;;22.67;18.00;;;;;;;9.96;100.00;96401.56;5007918;28;101953;-65
2023/04/19 10:59:32;;;;;;;22.07;17.93;;;;;;;10.09;100.00;96387.97;5016521;28;105263;-65
2023/04/19 11:02:00;;;;;;;33.13;22.83;;;;;;;10.37;100.00;96379.81;5008711;28;104612;-65
2023/04/19 11:05:01;;;;;;;21.93;18.03;;;;;;;10.44;100.00;96377.75;5010170;28;103173;-65
2023/04/19 11:07:28;;;;;;;18.70;15.80;;;;;;;10.66;100.00;96373.19;5007078;28;102840;-65
2023/04/19 11:09:55;;;;;;;21.83;17.27;;;;;;;10.80;100.00;96366.44;5003381;28;102525;-65
2023/04/19 11:12:22;;;;;;;21.10;18.03;;;;;;;10.95;100.00;96358.59;4990698;28;102052;-65
2023/04/19 11:18:18;;;;;;;20.10;16.37;;;;;;;11.22;100.00;96348.69;5008046;28;103795;-65
2023/04/19 11:20:53;;;;;;;20.60;15.80;;;;;;;11.07;100.00;96343.25;5000403;28;105940;-65
2023/04/19 11:23:42;;;;;;;20.90;16.00;;;;;;;11.31;100.00;96345.31;5002833;28;105966;-65
2023/04/19 11:26:10;;;;;;;18.10;14.90;;;;;;;10.94;100.00;96336.50;5010373;28;101865;-65
2023/04/19 11:28:38;;;;;;;21.50;15.63;;;;;;;11.20;100.00;96335.66;4999341;28;103858;-65
2023/04/19 11:31:05;;;;;;;17.93;15.17;;;;;;;11.46;100.00;96323.31;4994781;28;102819;-67
2023/04/19 11:33:33;;;;;;;18.23;15.47;;;;;;;11.65;100.00;96325.31;5004807;28;101852;-66
2023/04/19 11:36:02;;;;;;;17.20;14.13;;;;;;;11.84;100.00;96313.13;5000750;28;102741;-66
2023/04/19 11:38:29;;;;;;;16.23;13.30;;;;;;;11.98;100.00;96311.63;5005274;28;102513;-65
2023/04/19 11:41:00;;;;;;;15.47;13.07;;;;;;;12.55;100.00;96308.84;4998241;28;105641;-65
2023/04/19 11:43:32;;;;;;;16.87;13.73;;;;;;;12.20;100.00;96308.75;5004727;28;103762;-65
2023/04/19 11:46:05;;;;;;;15.60;13.00;;;;;;;12.37;100.00;96296.03;5005054;28;102033;-65